Terminal Aerodrome Forecast
Issued by NWS Bismarck, ND

Home | Current Version | Previous Version | Text Only | Print | Product List | Glossary On
Versions: 1 2 3 4 5 6 7 8 9 10 11 12 13 14 15 16 17 18 19
000
FTUS43 KBIS 280500
TAFISN
TAF
KISN 280539Z 2806/2906 04005KT 4SM -SN SCT015 OVC045
      TEMPO 2806/2809 6SM -SN BR SCT035 OVC060
     FM280900 06007KT 5SM -SN BR SCT025 OVC035
     FM282000 04008KT P6SM SCT025 BKN040=

USA.gov is the U.S. government's official web portal to all federal, state and local government web resources and services.